sensor_id;sensor_type;location;lat;lon;timestamp;P1;durP1;ratioP1;P2;durP2;ratioP2
73895;SDS011;73986;50.770;6.080;2023-11-18T00:01:49;13.75;;;6.72;;
73895;SDS011;73986;50.770;6.080;2023-11-18T00:11:53;15.63;;;7.00;;
73895;SDS011;73986;50.770;6.080;2023-11-18T00:21:56;20.05;;;8.35;;
73895;SDS011;73986;50.770;6.080;2023-11-18T00:31:58;12.85;;;5.75;;
73895;SDS011;73986;50.770;6.080;2023-11-18T00:42:00;15.43;;;6.40;;
73895;SDS011;73986;50.770;6.080;2023-11-18T00:52:02;13.20;;;4.30;;
73895;SDS011;73986;50.770;6.080;2023-11-18T01:02:06;11.05;;;4.72;;
73895;SDS011;73986;50.770;6.080;2023-11-18T01:12:08;12.85;;;5.35;;
73895;SDS011;73986;50.770;6.080;2023-11-18T01:22:12;12.18;;;6.03;;
73895;SDS011;73986;50.770;6.080;2023-11-18T01:32:14;15.70;;;5.38;;
73895;SDS011;73986;50.770;6.080;2023-11-18T01:42:18;14.77;;;5.40;;
73895;SDS011;73986;50.770;6.080;2023-11-18T01:52:21;11.15;;;4.57;;
73895;SDS011;73986;50.770;6.080;2023-11-18T02:02:24;11.50;;;4.50;;
73895;SDS011;73986;50.770;6.080;2023-11-18T02:12:27;13.77;;;4.28;;
73895;SDS011;73986;50.770;6.080;2023-11-18T02:22:38;9.80;;;4.63;;
73895;SDS011;73986;50.770;6.080;2023-11-18T02:32:43;11.73;;;4.07;;
73895;SDS011;73986;50.770;6.080;2023-11-18T02:42:50;7.95;;;3.97;;
73895;SDS011;73986;50.770;6.080;2023-11-18T02:52:56;10.75;;;4.45;;
73895;SDS011;73986;50.770;6.080;2023-11-18T03:02:58;9.15;;;3.67;;
73895;SDS011;73986;50.770;6.080;2023-11-18T03:13:02;8.20;;;3.25;;
73895;SDS011;73986;50.770;6.080;2023-11-18T03:23:03;6.70;;;3.40;;
73895;SDS011;73986;50.770;6.080;2023-11-18T03:33:09;8.68;;;3.65;;
73895;SDS011;73986;50.770;6.080;2023-11-18T03:43:11;8.52;;;3.38;;
73895;SDS011;73986;50.770;6.080;2023-11-18T03:53:14;9.40;;;3.70;;
73895;SDS011;73986;50.770;6.080;2023-11-18T04:03:16;8.93;;;3.38;;
73895;SDS011;73986;50.770;6.080;2023-11-18T04:13:19;7.28;;;3.80;;
73895;SDS011;73986;50.770;6.080;2023-11-18T04:23:20;7.78;;;3.67;;
73895;SDS011;73986;50.770;6.080;2023-11-18T04:33:24;7.30;;;3.03;;
73895;SDS011;73986;50.770;6.080;2023-11-18T04:43:25;4.05;;;1.90;;
73895;SDS011;73986;50.770;6.080;2023-11-18T04:53:28;4.05;;;1.85;;
73895;SDS011;73986;50.770;6.080;2023-11-18T05:03:30;6.10;;;2.20;;
73895;SDS011;73986;50.770;6.080;2023-11-18T05:13:34;7.70;;;2.05;;
73895;SDS011;73986;50.770;6.080;2023-11-18T05:23:35;7.97;;;1.90;;
73895;SDS011;73986;50.770;6.080;2023-11-18T05:33:40;6.20;;;1.92;;
73895;SDS011;73986;50.770;6.080;2023-11-18T05:43:41;8.13;;;2.85;;
73895;SDS011;73986;50.770;6.080;2023-11-18T05:53:52;4.53;;;1.90;;
73895;SDS011;73986;50.770;6.080;2023-11-18T06:03:57;10.63;;;1.90;;
73895;SDS011;73986;50.770;6.080;2023-11-18T06:14:02;8.48;;;2.20;;
73895;SDS011;73986;50.770;6.080;2023-11-18T06:24:04;5.60;;;1.63;;
73895;SDS011;73986;50.770;6.080;2023-11-18T06:34:07;2.88;;;1.35;;
73895;SDS011;73986;50.770;6.080;2023-11-18T06:44:09;4.57;;;1.60;;
73895;SDS011;73986;50.770;6.080;2023-11-18T06:54:15;11.35;;;1.95;;
73895;SDS011;73986;50.770;6.080;2023-11-18T07:04:17;5.30;;;1.70;;
73895;SDS011;73986;50.770;6.080;2023-11-18T07:14:20;9.10;;;1.83;;
73895;SDS011;73986;50.770;6.080;2023-11-18T07:24:22;6.53;;;2.15;;
73895;SDS011;73986;50.770;6.080;2023-11-18T07:34:25;3.83;;;1.60;;
73895;SDS011;73986;50.770;6.080;2023-11-18T07:44:26;3.70;;;1.50;;
73895;SDS011;73986;50.770;6.080;2023-11-18T07:54:30;5.35;;;2.10;;
73895;SDS011;73986;50.770;6.080;2023-11-18T08:04:31;3.15;;;1.40;;
73895;SDS011;73986;50.770;6.080;2023-11-18T08:14:34;6.35;;;1.77;;
73895;SDS011;73986;50.770;6.080;2023-11-18T08:24:37;6.88;;;2.22;;
73895;SDS011;73986;50.770;6.080;2023-11-18T08:34:40;10.88;;;2.08;;
73895;SDS011;73986;50.770;6.080;2023-11-18T08:44:41;2.95;;;1.63;;
73895;SDS011;73986;50.770;6.080;2023-11-18T08:54:44;9.15;;;1.98;;
73895;SDS011;73986;50.770;6.080;2023-11-18T09:15:08;5.63;;;2.03;;
73895;SDS011;73986;50.770;6.080;2023-11-18T09:25:14;9.00;;;2.55;;
73895;SDS011;73986;50.770;6.080;2023-11-18T09:35:17;4.10;;;1.70;;
73895;SDS011;73986;50.770;6.080;2023-11-18T09:45:19;4.15;;;1.98;;
73895;SDS011;73986;50.770;6.080;2023-11-18T09:55:24;4.55;;;2.33;;
73895;SDS011;73986;50.770;6.080;2023-11-18T10:05:32;1.90;;;1.30;;
73895;SDS011;73986;50.770;6.080;2023-11-18T10:15:35;8.00;;;2.15;;
73895;SDS011;73986;50.770;6.080;2023-11-18T10:25:36;4.55;;;2.15;;
73895;SDS011;73986;50.770;6.080;2023-11-18T10:35:42;4.47;;;2.50;;
73895;SDS011;73986;50.770;6.080;2023-11-18T10:45:52;5.18;;;1.35;;
73895;SDS011;73986;50.770;6.080;2023-11-18T10:55:57;5.88;;;1.50;;
73895;SDS011;73986;50.770;6.080;2023-11-18T11:06:06;3.05;;;1.30;;
73895;SDS011;73986;50.770;6.080;2023-11-18T11:16:20;5.45;;;1.70;;
73895;SDS011;73986;50.770;6.080;2023-11-18T11:26:40;6.57;;;1.65;;
73895;SDS011;73986;50.770;6.080;2023-11-18T11:36:54;6.03;;;1.52;;
73895;SDS011;73986;50.770;6.080;2023-11-18T11:46:57;3.90;;;1.70;;
73895;SDS011;73986;50.770;6.080;2023-11-18T11:57:02;4.97;;;1.60;;
73895;SDS011;73986;50.770;6.080;2023-11-18T12:07:07;4.87;;;1.70;;
73895;SDS011;73986;50.770;6.080;2023-11-18T12:17:11;5.43;;;1.30;;
73895;SDS011;73986;50.770;6.080;2023-11-18T12:38:05;5.15;;;1.75;;
73895;SDS011;73986;50.770;6.080;2023-11-18T12:48:24;1.77;;;1.00;;
73895;SDS011;73986;50.770;6.080;2023-11-18T12:58:33;3.22;;;1.27;;
73895;SDS011;73986;50.770;6.080;2023-11-18T13:08:35;2.22;;;1.00;;
73895;SDS011;73986;50.770;6.080;2023-11-18T13:18:48;1.65;;;0.98;;
73895;SDS011;73986;50.770;6.080;2023-11-18T13:28:49;0.88;;;0.80;;
73895;SDS011;73986;50.770;6.080;2023-11-18T13:38:52;1.00;;;0.90;;
73895;SDS011;73986;50.770;6.080;2023-11-18T13:48:54;1.65;;;0.90;;
73895;SDS011;73986;50.770;6.080;2023-11-18T13:58:58;0.55;;;0.55;;
73895;SDS011;73986;50.770;6.080;2023-11-18T14:09:00;0.60;;;0.60;;
73895;SDS011;73986;50.770;6.080;2023-11-18T14:19:04;1.63;;;0.90;;
73895;SDS011;73986;50.770;6.080;2023-11-18T14:29:06;2.60;;;1.10;;
73895;SDS011;73986;50.770;6.080;2023-11-18T14:39:09;0.90;;;0.60;;
73895;SDS011;73986;50.770;6.080;2023-11-18T14:49:14;2.53;;;0.73;;
73895;SDS011;73986;50.770;6.080;2023-11-18T14:59:16;1.10;;;0.73;;
73895;SDS011;73986;50.770;6.080;2023-11-18T15:09:19;0.50;;;0.50;;
73895;SDS011;73986;50.770;6.080;2023-11-18T15:19:25;0.55;;;0.55;;
73895;SDS011;73986;50.770;6.080;2023-11-18T15:29:28;0.95;;;0.70;;
73895;SDS011;73986;50.770;6.080;2023-11-18T15:39:38;0.60;;;0.60;;
73895;SDS011;73986;50.770;6.080;2023-11-18T15:49:41;0.50;;;0.50;;
73895;SDS011;73986;50.770;6.080;2023-11-18T15:59:44;0.60;;;0.60;;
73895;SDS011;73986;50.770;6.080;2023-11-18T16:09:46;0.57;;;0.57;;
73895;SDS011;73986;50.770;6.080;2023-11-18T16:19:52;0.60;;;0.60;;
73895;SDS011;73986;50.770;6.080;2023-11-18T16:29:53;0.70;;;0.70;;
73895;SDS011;73986;50.770;6.080;2023-11-18T16:39:56;0.82;;;0.65;;
73895;SDS011;73986;50.770;6.080;2023-11-18T16:49:58;1.40;;;0.70;;
73895;SDS011;73986;50.770;6.080;2023-11-18T17:00:01;0.75;;;0.60;;
73895;SDS011;73986;50.770;6.080;2023-11-18T17:10:15;1.35;;;0.90;;
73895;SDS011;73986;50.770;6.080;2023-11-18T17:20:18;0.68;;;0.68;;
73895;SDS011;73986;50.770;6.080;2023-11-18T17:30:20;0.77;;;0.65;;
73895;SDS011;73986;50.770;6.080;2023-11-18T17:40:24;0.40;;;0.40;;
73895;SDS011;73986;50.770;6.080;2023-11-18T17:50:25;2.33;;;1.20;;
73895;SDS011;73986;50.770;6.080;2023-11-18T18:00:28;1.10;;;0.70;;
73895;SDS011;73986;50.770;6.080;2023-11-18T18:10:30;1.80;;;1.00;;
73895;SDS011;73986;50.770;6.080;2023-11-18T18:20:34;1.88;;;0.90;;
73895;SDS011;73986;50.770;6.080;2023-11-18T18:30:35;0.75;;;0.60;;
73895;SDS011;73986;50.770;6.080;2023-11-18T18:40:39;1.90;;;1.17;;
73895;SDS011;73986;50.770;6.080;2023-11-18T18:50:41;0.93;;;0.60;;
73895;SDS011;73986;50.770;6.080;2023-11-18T19:00:44;1.38;;;0.85;;
73895;SDS011;73986;50.770;6.080;2023-11-18T19:10:45;7.57;;;1.20;;
73895;SDS011;73986;50.770;6.080;2023-11-18T19:20:48;3.20;;;1.30;;
73895;SDS011;73986;50.770;6.080;2023-11-18T19:30:50;2.35;;;1.30;;
73895;SDS011;73986;50.770;6.080;2023-11-18T19:40:53;3.08;;;1.50;;
73895;SDS011;73986;50.770;6.080;2023-11-18T19:50:56;0.63;;;0.50;;
73895;SDS011;73986;50.770;6.080;2023-11-18T20:00:59;3.42;;;1.27;;
73895;SDS011;73986;50.770;6.080;2023-11-18T20:11:01;1.00;;;0.65;;
73895;SDS011;73986;50.770;6.080;2023-11-18T20:21:05;1.50;;;0.80;;
73895;SDS011;73986;50.770;6.080;2023-11-18T20:31:08;2.50;;;1.10;;
73895;SDS011;73986;50.770;6.080;2023-11-18T20:41:11;2.08;;;1.10;;
73895;SDS011;73986;50.770;6.080;2023-11-18T20:51:14;2.25;;;1.00;;
73895;SDS011;73986;50.770;6.080;2023-11-18T21:11:41;1.30;;;0.73;;
73895;SDS011;73986;50.770;6.080;2023-11-18T21:21:43;0.65;;;0.60;;
73895;SDS011;73986;50.770;6.080;2023-11-18T21:31:46;0.60;;;0.57;;
73895;SDS011;73986;50.770;6.080;2023-11-18T21:41:47;1.73;;;0.70;;
73895;SDS011;73986;50.770;6.080;2023-11-18T21:51:51;2.25;;;1.10;;
73895;SDS011;73986;50.770;6.080;2023-11-18T22:01:54;2.22;;;1.00;;
73895;SDS011;73986;50.770;6.080;2023-11-18T22:11:57;2.58;;;0.95;;
73895;SDS011;73986;50.770;6.080;2023-11-18T22:21:59;2.05;;;0.90;;
73895;SDS011;73986;50.770;6.080;2023-11-18T22:32:04;2.35;;;1.05;;
73895;SDS011;73986;50.770;6.080;2023-11-18T22:42:06;1.38;;;0.73;;
73895;SDS011;73986;50.770;6.080;2023-11-18T22:52:17;2.20;;;1.08;;
73895;SDS011;73986;50.770;6.080;2023-11-18T23:02:19;2.35;;;1.10;;
73895;SDS011;73986;50.770;6.080;2023-11-18T23:12:26;2.70;;;1.20;;
73895;SDS011;73986;50.770;6.080;2023-11-18T23:22:31;2.30;;;1.20;;
